Latest Weather Observations for Kalgoorlie-Boulder

IDW60801

Issued at 1:05 pm WST Thursday 23 October 2014 (issued every 30 minutes, with the page automatically refreshed every 10 minutes)

About weather observations | Map of weather stations | Latest weather observations for WA | Other Formats
Station Details ID: 012038 Name: KALGOORLIE-BOULDER AIRPORT Lat: -30.78 Lon: 121.45 Height: 365.3 m
Data from the previous 72 hours. | See also: Recent months at Kalgoorlie-Boulder
Date/Time
WST
Temp
°C
App
Temp
°C
Dew
Point
Rel
Hum
%
Delta-T
°C
Wind Press
QNH
hPa
Press
MSL
hPa
Rain
since 9 am
mm
Dir
 
Spd
km/h
Gust
km/h
Spd
kts
Gust
kts
23/01:00pm 27.0 20.7 3.5 22 11.9 WNW 26 37 14 20 1013.5 - 0.0
23/12:30pm 26.1 18.5 3.1 22 11.5 W 32 44 17 24 1013.9 - 0.0
23/12:00pm 25.9 19.5 3.0 22 11.4 W 26 39 14 21 1014.0 1013.0 0.0
23/11:30am 26.1 20.1 3.4 23 11.4 W 24 32 13 17 1014.2 - 0.0
23/11:00am 25.3 19.3 3.6 24 10.9 WNW 24 35 13 19 1014.5 - 0.0
23/10:30am 24.7 19.1 5.3 28 10.0 NW 24 33 13 18 1014.9 - 0.0
23/10:00am 24.1 19.1 6.3 31 9.3 WNW 22 33 12 18 1015.1 - 0.0
23/09:30am 23.0 19.1 7.3 36 8.3 W 17 24 9 13 1015.4 - 0.0
23/09:00am 21.7 18.5 6.9 38 7.7 WSW 13 24 7 13 1015.6 1014.6 0.0
23/08:30am 20.8 17.2 6.9 40 7.2 W 15 20 8 11 1015.8 - 0.0
23/08:00am 20.3 16.6 6.4 40 7.1 W 15 24 8 13 1015.8 - 0.0
23/07:30am 19.4 16.3 7.2 45 6.3 WNW 13 19 7 10 1015.8 - 0.0
23/07:00am 18.5 14.1 7.2 47 5.8 W 20 24 11 13 1015.7 - 0.0
23/06:30am 18.0 13.9 7.8 51 5.3 W 19 30 10 16 1015.5 - 0.0
23/06:00am 17.4 13.3 7.9 53 4.9 W 19 24 10 13 1015.1 1014.0 0.0
23/05:30am 17.1 14.0 8.7 57 4.4 WSW 15 24 8 13 1014.8 - 0.0
23/05:00am 17.2 14.2 9.3 59 4.2 W 15 20 8 11 1014.3 - 0.0
23/04:30am 17.5 14.9 9.4 59 4.3 W 13 17 7 9 1014.2 - 0.0
23/04:00am 18.1 16.3 9.3 56 4.7 W 9 13 5 7 1013.6 - 0.0
23/03:30am 19.0 16.1 9.5 54 5.1 WSW 15 22 8 12 1013.5 - 0.0
23/03:00am 19.8 16.6 10.1 53 5.3 WSW 17 22 9 12 1013.3 1012.3 0.0
23/02:30am 20.5 17.2 10.8 53 5.4 WSW 19 26 10 14 1013.2 - 0.0
23/02:00am 21.0 18.2 11.2 53 5.5 WSW 17 24 9 13 1013.1 - 0.0
23/01:30am 22.3 18.7 10.5 47 6.6 WSW 20 35 11 19 1013.1 - 0.0
23/01:00am 22.8 20.0 8.6 40 7.7 WSW 13 19 7 10 1012.8 - 0.0
23/12:30am 24.0 19.5 6.2 31 9.3 W 19 24 10 13 1012.6 - 0.0
23/12:00am 24.2 20.2 6.5 32 9.3 N 17 20 9 11 1012.2 1011.1 0.0
 
Date/Time
WST
Temp
°C
App
Temp
°C
Dew
Point
Rel
Hum
%
Delta-T
°C
Wind Press
QNH
hPa
Press
MSL
hPa
Rain
since 9 am
mm
Dir
 
Spd
km/h
Gust
km/h
Spd
kts
Gust
kts
22/11:30pm 24.8 20.7 6.4 30 9.7 N 17 24 9 13 1012.6 - 0.0
22/11:00pm 25.5 21.1 6.4 29 10.1 N 19 24 10 13 1012.7 - 0.0
22/10:30pm 25.8 21.3 6.3 28 10.3 N 19 28 10 15 1012.8 - 0.0
22/10:00pm 26.3 22.2 6.3 28 10.6 N 17 28 9 15 1013.1 - 0.0
22/09:30pm 25.8 22.7 7.4 31 9.9 N 13 19 7 10 1013.3 - 0.0
22/09:00pm 26.2 21.0 7.3 30 10.2 NE 24 33 13 18 1012.8 1011.7 0.0
22/08:30pm 26.8 22.0 7.4 29 10.5 NE 22 33 12 18 1013.0 - 0.0
22/08:00pm 27.2 22.1 7.5 28 10.7 ENE 24 33 13 18 1012.9 - 0.0
22/07:30pm 27.7 22.9 7.5 28 11.0 ENE 22 32 12 17 1013.1 - 0.0
22/07:00pm 28.3 23.9 7.4 26 11.4 ENE 20 32 11 17 1013.3 - 0.0
22/06:30pm 28.3 24.0 7.7 27 11.3 ENE 20 28 11 15 1013.4 - 0.0
22/06:00pm 28.8 23.6 7.4 26 11.7 ENE 24 33 13 18 1013.5 1012.5 0.0
22/05:30pm 29.3 24.7 8.0 26 11.8 ENE 22 32 12 17 1013.7 - 0.0
22/05:00pm 29.2 25.3 8.7 27 11.5 NE 19 30 10 16 1013.9 - 0.0
22/04:30pm 29.9 24.9 8.2 25 12.1 ENE 24 35 13 19 1014.0 - 0.0
22/04:00pm 29.9 24.9 8.2 25 12.1 NE 24 37 13 20 1014.5 - 0.0
22/03:30pm 29.9 25.0 8.5 26 12.0 ENE 24 35 13 19 1014.5 - 0.0
22/03:00pm 29.6 25.2 8.8 27 11.7 NE 22 30 12 16 1015.1 1014.0 0.0
22/02:30pm 29.2 25.1 8.6 27 11.5 ENE 20 30 11 16 1015.6 - 0.0
22/02:00pm 29.4 25.2 8.4 27 11.7 ENE 20 30 11 16 1016.1 - 0.0
22/01:30pm 28.0 24.6 10.6 33 10.0 ENE 19 28 10 15 1016.9 - 0.0
22/01:00pm 27.6 24.3 10.9 35 9.6 E 19 24 10 13 1017.6 - 0.0
22/12:30pm 27.3 23.9 11.4 37 9.2 ENE 20 32 11 17 1017.9 - 0.0
22/12:00pm 25.8 22.5 11.6 41 8.2 ENE 20 32 11 17 1018.4 1017.4 0.0
22/11:30am 25.6 22.9 11.8 42 8.0 ENE 17 28 9 15 1018.9 - 0.0
22/11:00am 25.1 21.8 11.7 43 7.7 ENE 20 32 11 17 1019.5 - 0.0
22/10:30am 23.8 21.2 12.0 47 6.8 ENE 17 32 9 17 1020.3 - 0.0
22/10:00am 22.5 19.8 11.8 50 6.1 ENE 17 24 9 13 1020.8 - 0.0
22/09:30am 21.8 18.6 11.3 51 5.9 ENE 19 30 10 16 1021.1 - 0.0
22/09:00am 20.6 17.3 11.5 56 5.1 ENE 20 28 11 15 1021.2 1020.2 0.0
22/08:30am 19.8 16.4 11.4 58 4.7 ENE 20 28 11 15 1021.2 - 0.0
22/08:00am 19.2 15.9 11.5 61 4.3 ENE 20 33 11 18 1021.4 - 0.0
22/07:30am 18.1 14.9 11.4 65 3.7 ENE 19 26 10 14 1021.4 - 0.0
22/07:00am 17.3 13.9 11.3 68 3.3 ENE 20 28 11 15 1021.4 - 0.0
22/06:30am 16.2 12.8 11.1 72 2.8 E 20 28 11 15 1021.3 - 0.0
22/06:00am 15.4 12.0 11.2 76 2.3 E 20 30 11 16 1021.2 1020.2 0.0
22/05:30am 14.7 11.3 11.2 79 1.9 E 20 28 11 15 1021.1 - 0.0
22/05:00am 14.5 11.2 11.6 83 1.6 E 20 30 11 16 1020.9 - 0.0
22/04:30am 14.6 11.0 11.9 84 1.5 E 22 32 12 17 1020.7 - 0.0
22/04:00am 15.0 10.7 11.9 82 1.7 E 26 35 14 19 1020.7 - 0.0
22/03:30am 15.6 11.7 12.2 80 1.9 E 24 35 13 19 1020.7 - 0.0
22/03:00am 15.9 12.1 12.3 79 2.0 E 24 32 13 17 1020.8 1019.8 0.0
22/02:30am 16.5 12.6 12.2 76 2.4 E 24 33 13 18 1020.9 - 0.0
22/02:00am 16.6 13.5 12.1 75 2.5 ESE 20 26 11 14 1021.3 - 0.0
22/01:30am 17.2 13.6 11.8 70 3.0 ESE 22 30 12 16 1021.3 - 0.0
22/01:00am 17.5 13.8 11.5 68 3.3 ESE 22 30 12 16 1021.1 - 0.0
22/12:30am 17.5 14.4 11.7 69 3.2 ESE 19 22 10 12 1021.2 - 0.0
22/12:00am 17.2 14.9 11.8 70 3.0 ESE 15 19 8 10 1021.3 1020.3 0.0
 
Date/Time
WST
Temp
°C
App
Temp
°C
Dew
Point
Rel
Hum
%
Delta-T
°C
Wind Press
QNH
hPa
Press
MSL
hPa
Rain
since 9 am
mm
Dir
 
Spd
km/h
Gust
km/h
Spd
kts
Gust
kts
21/11:30pm 17.7 16.1 11.6 67 3.4 E 11 13 6 7 1021.7 - 0.0
21/11:00pm 17.9 15.4 11.2 65 3.7 SE 15 19 8 10 1021.7 - 0.0
21/10:30pm 17.8 16.0 10.8 63 3.8 SE 11 13 6 7 1022.0 - 0.0
21/10:00pm 18.7 17.4 11.1 61 4.2 SE 9 13 5 7 1022.0 - 0.0
21/09:30pm 18.8 17.2 11.6 63 4.0 SE 11 13 6 7 1022.0 - 0.0
21/09:00pm 19.3 17.0 11.6 61 4.3 ESE 15 17 8 9 1022.1 1021.1 0.0
21/08:30pm 20.2 17.3 11.0 55 5.1 ESE 17 22 9 12 1022.2 - 0.0
21/08:00pm 20.1 18.2 11.7 58 4.7 ESE 13 15 7 8 1021.8 - 0.0
21/07:30pm 21.1 18.6 11.1 52 5.6 ESE 15 17 8 9 1021.5 - 0.0
21/07:00pm 22.2 18.8 10.5 47 6.5 ESE 19 22 10 12 1021.3 - 0.0
21/06:30pm 23.0 19.5 10.2 44 7.1 ESE 19 22 10 12 1021.0 - 0.0
21/06:00pm 24.0 20.4 9.7 40 7.9 SE 19 24 10 13 1020.6 1019.6 0.0
21/05:30pm 25.4 23.1 7.5 32 9.6 ENE 9 13 5 7 1020.1 - 0.0
21/05:00pm 26.2 24.1 6.0 27 10.6 WNW 6 9 3 5 1019.9 - 0.0
21/04:30pm 26.2 24.1 6.0 27 10.6 W 6 11 3 6 1019.9 - 0.0
21/04:00pm 26.5 23.3 5.1 25 11.1 S 11 15 6 8 1019.7 - 0.0
21/03:30pm 26.2 23.4 5.1 26 10.9 SSW 9 19 5 10 1019.8 - 0.0
21/03:00pm 26.8 24.6 6.2 27 10.9 NW 7 15 4 8 1019.9 1018.9 0.0
21/02:30pm 26.5 24.4 6.0 27 10.8 SW 6 17 3 9 1020.1 - 0.0
21/02:00pm 25.2 22.2 5.8 28 10.1 SSW 11 19 6 10 1020.1 - 0.0
21/01:30pm 25.2 21.6 5.2 27 10.3 S 13 19 7 10 1020.5 - 0.0
21/01:00pm 24.2 22.4 7.8 35 8.8 S 7 13 4 7 1020.9 - 0.0
21/12:30pm 23.5 21.2 7.5 35 8.5 SW 9 17 5 9 1021.2 - 0.0
21/12:00pm 23.4 20.6 6.8 34 8.7 S 11 20 6 11 1021.6 1020.6 0.0
21/11:30am 23.3 21.3 8.5 38 8.0 NW 9 19 5 10 1021.8 - 0.0
21/11:00am 21.9 20.4 10.6 48 6.3 NE 9 15 5 8 1022.1 - 0.0
21/10:30am 21.5 20.5 11.1 51 5.8 ESE 7 13 4 7 1022.4 - 0.0
21/10:00am 20.9 19.6 11.2 54 5.4 ENE 9 15 5 8 1022.5 - 0.0
21/09:30am 20.0 17.7 10.5 54 5.2 E 13 19 7 10 1022.6 - 0.0
21/09:00am 19.8 18.9 11.2 57 4.8 S 7 13 4 7 1022.6 1021.7 0.2
21/08:30am 18.6 17.5 10.5 59 4.4 SSE 7 13 4 7 1022.5 - 0.2
21/08:00am 17.4 15.6 11.0 66 3.5 SSE 11 15 6 8 1022.3 - 0.2
21/07:30am 16.3 14.1 10.8 70 3.0 SSE 13 19 7 10 1022.1 - 0.2
21/07:00am 15.4 12.6 11.4 77 2.2 S 17 20 9 11 1021.7 - 0.2
21/06:30am 14.3 11.9 11.3 82 1.6 S 15 19 8 10 1021.4 - 0.2
21/06:00am 13.0 11.7 11.3 89 0.9 S 9 13 5 7 1021.2 1020.2 0.2
21/05:30am 12.2 10.4 10.7 90 0.8 SSW 11 13 6 7 1020.8 - 0.2
21/05:00am 11.5 9.8 10.0 90 0.8 SSW 9 11 5 6 1020.3 - 0.2
21/04:30am 12.1 10.5 10.2 88 1.0 SSW 9 11 5 6 1020.0 - 0.2
21/04:00am 12.0 10.9 10.1 88 1.0 S 6 7 3 4 1019.5 - 0.2
21/03:30am 12.2 10.6 10.3 88 1.0 S 9 9 5 5 1019.3 - 0.2
21/03:00am 12.4 12.5 10.3 87 1.1 CALM 0 0 0 0 1019.1 1018.1 0.2
21/02:30am 12.8 11.9 10.5 86 1.2 SSW 6 9 3 5 1018.9 - 0.2
21/02:00am 13.2 12.0 10.4 83 1.5 SSW 7 9 4 5 1019.0 - 0.2
21/01:30am 13.3 11.8 10.5 83 1.5 SW 9 11 5 6 1018.9 - 0.2
21/01:00am 13.4 11.8 10.2 81 1.7 SSW 9 11 5 6 1018.8 - 0.2
21/12:30am 14.0 12.0 10.0 77 2.1 SW 11 13 6 7 1019.0 - 0.2
21/12:00am 13.9 14.1 10.7 81 1.7 CALM 0 0 0 0 1019.3 1018.3 0.2
 
Date/Time
WST
Temp
°C
App
Temp
°C
Dew
Point
Rel
Hum
%
Delta-T
°C
Wind Press
QNH
hPa
Press
MSL
hPa
Rain
since 9 am
mm
Dir
 
Spd
km/h
Gust
km/h
Spd
kts
Gust
kts
20/11:30pm 14.7 13.6 9.8 72 2.6 SSW 6 7 3 4 1019.3 - 0.2
20/11:00pm 14.5 13.6 10.6 77 2.1 S 6 9 3 5 1019.4 - 0.2
20/10:30pm 15.2 13.6 10.1 71 2.7 SSW 9 13 5 7 1019.5 - 0.2
20/10:00pm 15.4 13.7 9.9 70 2.9 SSW 9 11 5 6 1019.4 - 0.2
20/09:30pm 16.7 14.8 9.1 61 4.0 S 9 13 5 7 1019.4 - 0.2
20/09:00pm 17.8 14.2 8.4 54 4.9 SSW 17 20 9 11 1019.6 1018.6 0.2
20/08:30pm 18.1 15.1 7.9 51 5.3 SW 13 17 7 9 1019.1 - 0.2
20/08:00pm 18.7 15.7 7.5 48 5.8 SW 13 19 7 10 1018.8 - 0.2
20/07:30pm 19.0 15.9 7.4 47 6.0 SW 13 17 7 9 1018.3 - 0.2
20/07:00pm 19.7 16.6 7.1 44 6.5 WSW 13 20 7 11 1017.9 - 0.2
20/06:30pm 20.7 16.1 6.5 39 7.3 WSW 20 30 11 16 1017.3 - 0.2
20/06:00pm 21.7 17.0 6.1 36 8.0 WSW 20 28 11 15 1016.7 1015.7 0.2
20/05:30pm 22.8 16.8 3.5 28 9.5 W 24 35 13 19 1016.1 - 0.2
20/05:00pm 23.7 18.9 5.4 30 9.4 W 20 30 11 16 1015.7 - 0.2
20/04:30pm 23.9 17.7 4.2 28 9.9 W 26 37 14 20 1015.4 - 0.2
20/04:00pm 24.4 17.9 4.5 27 10.1 W 28 41 15 22 1015.1 - 0.2
20/03:30pm 24.5 18.3 4.3 27 10.2 W 26 39 14 21 1014.7 - 0.2
20/03:00pm 24.7 18.3 5.3 28 10.0 W 28 43 15 23 1014.4 1013.4 0.2
20/02:30pm 24.7 18.4 5.6 29 9.9 W 28 41 15 22 1014.3 - 0.2
20/02:00pm 24.8 18.8 5.5 29 10.0 WNW 26 39 14 21 1014.2 - 0.2
20/01:54pm 24.4 18.3 6.5 31 9.4 WNW 28 46 15 25 1014.2 - 0.2
20/01:30pm 24.5 18.8 6.7 32 9.4 WNW 26 39 14 21 1014.4 - 0.2

Other Formats:

Comma delimited format used in spreadsheet applications
http://www.bom.gov.au/fwo/IDW60801/IDW60801.94637.axf

JavaScript Object Notation format (JSON) in row-major order
http://www.bom.gov.au/fwo/IDW60801/IDW60801.94637.json